Terminal Aerodrome Forecast
Issued by NWS

Home | Current Version | Previous Version | Text Only | Print | Product List | Glossary On
Versions: 1 2 3 4 5 6 7 8 9 10 11 12 13 14 15 16 17 18 19 20 21
701
FTUS44 KSJT 101018 AAA
TAFJCT
TAF AMD
KJCT 101018Z 1010/1106 VRB05KT P6SM BKN025
     FM110000 18005KT P6SM OVC015
     FM110300 18004KT 4SM BR OVC007=

USA.gov is the U.S. government's official web portal to all federal, state and local government web resources and services.